Time;durP1;ratioP1;P1;durP2;ratioP2;P2;SDS_P1;SDS_P2;PMS_P1;PMS_P2;Temp;Humidity;BMP_temperature;BMP_pressure;BME280_temperature;BME280_humidity;BME280_pressure;Samples;Min_cycle;Max_cycle;Signal;HPM_P1;HPM_P2
2022/07/13 00:00:15;;;;;;;8.60;4.88;;;22.30;67.40;;;;;;5054946;28;20033;-16
2022/07/13 00:02:41;;;;;;;5.65;4.35;;;22.20;67.90;;;;;;5054703;28;20057;-15
2022/07/13 00:05:07;;;;;;;7.45;4.45;;;22.20;68.70;;;;;;5054668;28;20040;-18
2022/07/13 00:07:34;;;;;;;7.18;3.97;;;22.00;69.20;;;;;;5053722;28;20024;-16
2022/07/13 00:10:04;;;;;;;6.28;3.95;;;21.90;69.20;;;;;;5054907;28;20163;-17
2022/07/13 00:12:30;;;;;;;7.72;3.92;;;21.90;69.10;;;;;;5054740;28;20100;-16
2022/07/13 00:14:56;;;;;;;5.45;3.88;;;21.80;69.90;;;;;;5054356;28;20159;-17
2022/07/13 00:17:21;;;;;;;5.60;3.78;;;21.70;69.50;;;;;;5055292;28;20028;-17
2022/07/13 00:19:47;;;;;;;7.78;4.78;;;21.70;70.00;;;;;;5054635;28;20020;-17
2022/07/13 00:22:13;;;;;;;6.85;4.43;;;21.60;70.80;;;;;;5054126;28;20028;-19
2022/07/13 00:24:39;;;;;;;7.82;4.40;;;21.50;70.80;;;;;;5054311;28;20025;-17
2022/07/13 00:27:05;;;;;;;7.90;4.00;;;21.50;71.10;;;;;;5054279;28;20035;-16
2022/07/13 00:29:31;;;;;;;5.60;3.63;;;21.50;71.00;;;;;;5054130;28;20025;-16
2022/07/13 00:31:57;;;;;;;6.00;3.95;;;21.40;70.90;;;;;;5054244;28;20429;-17
2022/07/13 00:34:22;;;;;;;5.20;3.90;;;21.40;71.10;;;;;;5054136;28;20024;-15
2022/07/13 00:36:48;;;;;;;4.55;3.60;;;21.40;71.30;;;;;;5054102;28;20044;-17
2022/07/13 00:39:14;;;;;;;7.55;4.30;;;21.40;70.70;;;;;;5054373;28;20025;-17
2022/07/13 00:41:45;;;;;;;8.88;4.03;;;21.30;70.50;;;;;;5054303;28;20384;-15
2022/07/13 00:44:12;;;;;;;8.55;4.15;;;21.30;70.90;;;;;;5054266;28;20025;-17
2022/07/13 00:46:39;;;;;;;4.55;3.70;;;21.30;71.50;;;;;;5054811;28;20039;-18
2022/07/13 00:49:06;;;;;;;6.20;3.72;;;21.30;70.90;;;;;;5053785;28;20043;-18
2022/07/13 00:51:31;;;;;;;6.68;3.70;;;21.30;70.90;;;;;;5054143;28;20097;-18
2022/07/13 00:53:59;;;;;;;6.32;4.18;;;21.30;70.70;;;;;;5053796;28;20116;-17
2022/07/13 00:56:26;;;;;;;4.38;3.20;;;21.30;70.50;;;;;;5053504;28;20033;-18
2022/07/13 00:58:52;;;;;;;5.03;3.90;;;21.20;70.60;;;;;;5053680;28;20025;-18
2022/07/13 01:01:18;;;;;;;4.70;3.40;;;21.20;70.50;;;;;;5053627;28;20029;-18
2022/07/13 01:03:44;;;;;;;4.68;3.30;;;21.20;70.80;;;;;;5053855;28;20029;-17
2022/07/13 01:06:11;;;;;;;7.38;3.70;;;21.20;71.10;;;;;;5053659;28;20102;-17
2022/07/13 01:08:37;;;;;;;4.80;3.53;;;21.20;71.10;;;;;;5053556;28;20033;-18
2022/07/13 01:11:04;;;;;;;5.85;3.70;;;21.10;70.90;;;;;;5053852;28;20029;-17
2022/07/13 01:13:30;;;;;;;7.40;3.97;;;21.10;71.00;;;;;;5053753;28;20025;-17
2022/07/13 01:15:57;;;;;;;4.68;3.80;;;21.10;71.30;;;;;;5053954;28;20025;-18
2022/07/13 01:18:23;;;;;;;4.80;3.65;;;21.10;70.80;;;;;;5053211;28;20013;-17
2022/07/13 01:20:50;;;;;;;6.30;3.33;;;21.00;70.80;;;;;;5053261;28;20064;-17
2022/07/13 01:23:17;;;;;;;5.50;3.78;;;21.10;70.80;;;;;;5053283;28;20032;-18
2022/07/13 01:25:44;;;;;;;4.72;3.53;;;21.00;71.00;;;;;;5053282;28;20037;-18
2022/07/13 01:28:12;;;;;;;4.28;3.80;;;21.00;71.00;;;;;;5053635;28;20025;-18
2022/07/13 01:30:38;;;;;;;5.38;3.50;;;21.00;71.00;;;;;;5053381;28;20057;-17
2022/07/13 01:33:03;;;;;;;5.68;4.10;;;21.00;70.90;;;;;;5053437;28;20078;-17
2022/07/13 01:35:29;;;;;;;5.65;3.42;;;21.00;70.80;;;;;;5053376;28;20432;-18
2022/07/13 01:37:56;;;;;;;5.32;3.15;;;21.00;70.90;;;;;;5053441;28;20021;-15
2022/07/13 01:40:23;;;;;;;4.70;3.17;;;21.10;70.80;;;;;;5053097;28;20398;-18
2022/07/13 01:42:51;;;;;;;3.22;2.92;;;21.10;70.70;;;;;;5053518;28;20029;-15
2022/07/13 01:45:22;;;;;;;4.63;3.08;;;21.20;70.60;;;;;;5053470;28;20021;-17
2022/07/13 01:47:53;;;;;;;4.43;3.30;;;21.20;70.60;;;;;;5052963;28;20047;-17
2022/07/13 01:50:21;;;;;;;5.93;3.67;;;21.20;70.60;;;;;;5052794;28;20021;-17
2022/07/13 01:52:48;;;;;;;4.07;3.08;;;21.30;70.60;;;;;;5051717;28;20032;-17
2022/07/13 01:55:15;;;;;;;4.70;3.40;;;21.30;70.30;;;;;;5052918;28;20132;-17
2022/07/13 01:57:42;;;;;;;4.57;3.13;;;21.40;70.30;;;;;;5052889;28;20033;-18
2022/07/13 02:00:12;;;;;;;4.40;3.28;;;21.40;70.30;;;;;;5053230;28;20029;-18
2022/07/13 02:02:39;;;;;;;4.88;3.53;;;21.50;70.30;;;;;;5052783;28;20037;-17
2022/07/13 02:05:05;;;;;;;5.55;3.70;;;21.50;70.20;;;;;;5052770;28;20025;-18
2022/07/13 02:07:31;;;;;;;6.35;3.85;;;21.40;70.50;;;;;;5053090;28;20061;-17
2022/07/13 02:09:57;;;;;;;6.05;3.80;;;21.50;70.70;;;;;;5053047;28;20515;-19
2022/07/13 02:12:23;;;;;;;4.85;3.50;;;21.50;70.80;;;;;;5052910;28;20469;-19
2022/07/13 02:14:49;;;;;;;4.45;3.38;;;21.50;70.50;;;;;;5053074;28;20431;-17
2022/07/13 02:17:15;;;;;;;4.55;3.15;;;21.50;70.40;;;;;;5053038;28;20392;-17
2022/07/13 02:19:41;;;;;;;3.78;2.92;;;21.50;70.10;;;;;;5052886;28;20028;-17
2022/07/13 02:22:07;;;;;;;4.50;3.13;;;21.60;70.20;;;;;;5052595;28;20039;-17
2022/07/13 02:24:34;;;;;;;3.88;3.38;;;21.60;70.10;;;;;;5052452;28;20484;-17
2022/07/13 02:27:00;;;;;;;4.90;3.35;;;21.60;70.10;;;;;;5052594;28;20029;-19
2022/07/13 02:29:26;;;;;;;4.63;3.35;;;21.60;70.10;;;;;;5052303;28;20503;-17
2022/07/13 02:31:52;;;;;;;3.85;3.20;;;21.60;70.00;;;;;;5055352;28;20104;-17
2022/07/13 02:34:18;;;;;;;5.43;3.90;;;21.60;70.00;;;;;;5056153;28;20385;-18
2022/07/13 02:36:44;;;;;;;5.38;3.40;;;21.50;70.30;;;;;;5056393;28;20116;-16
2022/07/13 02:39:10;;;;;;;4.78;3.08;;;21.50;70.50;;;;;;5055125;28;20096;-17
2022/07/13 02:41:36;;;;;;;4.45;3.05;;;21.40;70.60;;;;;;5056841;28;20044;-17
2022/07/13 02:44:02;;;;;;;5.20;3.55;;;21.30;70.70;;;;;;5055020;28;20021;-19
2022/07/13 02:46:28;;;;;;;3.75;3.10;;;21.20;70.80;;;;;;5056036;28;20397;-18
2022/07/13 02:48:54;;;;;;;4.63;3.33;;;21.20;70.80;;;;;;5056276;28;20037;-17
2022/07/13 02:51:20;;;;;;;6.30;3.70;;;21.20;70.90;;;;;;5056317;28;20058;-18
2022/07/13 02:53:46;;;;;;;6.78;3.60;;;21.10;71.30;;;;;;5056067;28;20040;-19
2022/07/13 02:56:12;;;;;;;5.60;3.65;;;20.90;71.60;;;;;;5056060;28;20024;-17
2022/07/13 02:58:38;;;;;;;6.50;3.42;;;20.90;71.50;;;;;;5055994;28;20021;-18
2022/07/13 03:01:04;;;;;;;4.95;3.50;;;20.80;71.70;;;;;;5056186;28;20083;-19
2022/07/13 03:03:30;;;;;;;5.40;3.97;;;20.70;72.20;;;;;;5056242;28;20025;-17
2022/07/13 03:05:57;;;;;;;6.28;3.72;;;20.60;72.30;;;;;;5056019;28;20410;-18
2022/07/13 03:08:24;;;;;;;5.65;3.95;;;20.50;72.40;;;;;;5055552;28;20484;-16
2022/07/13 03:10:50;;;;;;;6.20;4.00;;;20.40;72.90;;;;;;5056082;28;20121;-18
2022/07/13 03:13:15;;;;;;;5.75;4.47;;;20.40;73.10;;;;;;5055707;28;20461;-17
2022/07/13 03:15:41;;;;;;;7.65;4.95;;;20.20;73.20;;;;;;5055849;28;20108;-17
2022/07/13 03:18:07;;;;;;;5.90;4.35;;;20.20;73.50;;;;;;5055852;28;20021;-16
2022/07/13 03:20:34;;;;;;;8.15;4.65;;;20.10;73.70;;;;;;5055561;28;20033;-17
2022/07/13 03:23:00;;;;;;;6.05;4.75;;;20.00;73.90;;;;;;5055546;28;20031;-18
2022/07/13 03:25:27;;;;;;;8.63;5.43;;;19.90;74.20;;;;;;5056111;28;20025;-17
2022/07/13 03:27:53;;;;;;;6.43;4.57;;;19.90;74.30;;;;;;5054146;28;20423;-17
2022/07/13 03:30:19;;;;;;;6.18;3.95;;;19.90;74.40;;;;;;5055333;28;20501;-20
2022/07/13 03:32:45;;;;;;;5.55;3.90;;;19.90;74.50;;;;;;5055699;28;20020;-18
2022/07/13 03:35:11;;;;;;;6.22;5.38;;;19.90;74.40;;;;;;5055515;28;20495;-18
2022/07/13 03:37:37;;;;;;;7.50;5.38;;;19.80;74.80;;;;;;5055790;28;20040;-17
2022/07/13 03:40:04;;;;;;;8.90;5.18;;;19.70;74.90;;;;;;5055513;28;20021;-18
2022/07/13 03:42:31;;;;;;;7.03;5.40;;;19.70;74.80;;;;;;5054721;28;20025;-17
2022/07/13 03:44:58;;;;;;;7.32;5.32;;;19.60;75.10;;;;;;5055444;28;20036;-17
2022/07/13 03:47:24;;;;;;;8.98;4.88;;;19.50;75.40;;;;;;5055353;28;20029;-17
2022/07/13 03:49:49;;;;;;;5.97;4.35;;;19.40;75.70;;;;;;5053592;28;20029;-16
2022/07/13 03:52:15;;;;;;;7.35;4.85;;;19.40;75.70;;;;;;5055450;28;20354;-17
2022/07/13 03:54:41;;;;;;;5.85;4.30;;;19.40;75.70;;;;;;5055057;28;20033;-16
2022/07/13 03:57:07;;;;;;;7.22;4.38;;;19.40;75.80;;;;;;5055203;28;20044;-17
2022/07/13 03:59:34;;;;;;;5.70;4.40;;;19.40;75.80;;;;;;5055036;28;20033;-17
2022/07/13 04:02:00;;;;;;;5.50;4.03;;;19.40;75.80;;;;;;5055034;28;20036;-17
2022/07/13 04:04:27;;;;;;;6.68;4.63;;;19.40;75.80;;;;;;5054540;28;20380;-17
2022/07/13 04:06:53;;;;;;;8.57;5.45;;;19.40;76.00;;;;;;5054710;28;20036;-17
2022/07/13 04:09:25;;;;;;;10.50;5.70;;;19.40;75.90;;;;;;5054583;28;20064;-17
2022/07/13 04:11:51;;;;;;;9.75;5.55;;;19.40;75.90;;;;;;5054784;28;20025;-16
2022/07/13 04:14:17;;;;;;;11.57;5.43;;;19.40;76.00;;;;;;5054497;28;20078;-16
2022/07/13 04:16:43;;;;;;;9.75;4.80;;;19.40;76.00;;;;;;5054841;28;20025;-17
2022/07/13 04:19:09;;;;;;;5.50;4.47;;;19.40;76.00;;;;;;5054396;28;20032;-17
2022/07/13 04:21:35;;;;;;;7.88;4.85;;;19.40;76.00;;;;;;5054392;28;20025;-17
2022/07/13 04:24:01;;;;;;;8.10;4.93;;;19.40;76.00;;;;;;5054408;28;20033;-16
2022/07/13 04:26:27;;;;;;;6.82;3.90;;;19.50;75.90;;;;;;5054133;28;20144;-16
2022/07/13 04:28:52;;;;;;;6.78;4.63;;;19.50;76.00;;;;;;5054131;28;20120;-16
2022/07/13 04:31:18;;;;;;;7.40;5.00;;;19.50;75.80;;;;;;5054167;28;20102;-17
2022/07/13 04:33:44;;;;;;;8.15;5.57;;;19.60;76.40;;;;;;5054143;28;20028;-17
2022/07/13 04:36:10;;;;;;;6.13;4.50;;;19.60;77.90;;;;;;5054172;28;20017;-18
2022/07/13 04:38:37;;;;;;;7.95;5.28;;;19.60;76.30;;;;;;5054134;28;20025;-17
2022/07/13 04:41:03;;;;;;;9.27;5.30;;;19.70;76.20;;;;;;5054358;28;20036;-16
2022/07/13 04:43:28;;;;;;;10.48;6.07;;;19.90;76.00;;;;;;5054006;28;20035;-15
2022/07/13 04:45:54;;;;;;;8.18;5.50;;;19.90;75.90;;;;;;5054265;28;20492;-17
2022/07/13 04:48:20;;;;;;;8.30;6.15;;;19.90;76.50;;;;;;5053612;28;20556;-17
2022/07/13 04:50:46;;;;;;;9.25;5.65;;;20.10;76.50;;;;;;5054031;28;20138;-18
2022/07/13 04:53:11;;;;;;;7.18;5.47;;;20.20;75.70;;;;;;5054435;28;20091;-16
2022/07/13 04:55:38;;;;;;;8.52;5.13;;;20.30;75.80;;;;;;5053671;28;20044;-17
2022/07/13 04:58:04;;;;;;;12.55;8.30;;;20.40;76.10;;;;;;5053744;28;20055;-17
2022/07/13 05:00:30;;;;;;;13.05;7.03;;;20.50;76.70;;;;;;5053498;28;20119;-17
2022/07/13 05:02:56;;;;;;;11.80;6.60;;;20.70;77.00;;;;;;5054333;28;20032;-19
2022/07/13 05:05:22;;;;;;;11.90;6.95;;;20.80;76.50;;;;;;5052550;28;20447;-18
2022/07/13 05:07:48;;;;;;;8.18;6.07;;;20.90;76.30;;;;;;5053541;28;20021;-18
2022/07/13 05:10:14;;;;;;;10.25;6.75;;;21.10;75.80;;;;;;5053661;28;20024;-17
2022/07/13 05:12:41;;;;;;;9.68;6.15;;;21.20;75.70;;;;;;5054322;28;20040;-17
2022/07/13 05:15:09;;;;;;;9.55;6.05;;;21.30;75.00;;;;;;5053459;28;20035;-18
2022/07/13 05:17:35;;;;;;;7.22;5.57;;;21.50;74.70;;;;;;5053409;28;20033;-17
2022/07/13 05:20:01;;;;;;;10.65;5.60;;;21.60;73.90;;;;;;5053593;28;20014;-17
2022/07/13 05:22:27;;;;;;;7.93;5.05;;;21.70;73.30;;;;;;5053137;28;20029;-18
2022/07/13 05:24:53;;;;;;;7.93;4.43;;;21.80;71.90;;;;;;5053312;28;20037;-19
2022/07/13 05:27:19;;;;;;;8.00;4.65;;;21.90;71.40;;;;;;5053233;28;20029;-17
2022/07/13 05:29:45;;;;;;;9.13;4.95;;;22.00;70.90;;;;;;5053234;28;20041;-17
2022/07/13 05:32:11;;;;;;;6.07;3.90;;;22.20;69.10;;;;;;5053436;28;20388;-17
2022/07/13 05:34:36;;;;;;;7.18;4.47;;;22.40;69.10;;;;;;5053202;28;20468;-17
2022/07/13 05:37:02;;;;;;;5.85;3.85;;;22.40;68.10;;;;;;5053591;28;20433;-18
2022/07/13 05:39:28;;;;;;;8.52;4.10;;;22.50;67.40;;;;;;5053593;28;20075;-17
2022/07/13 05:41:54;;;;;;;6.15;3.60;;;22.60;66.80;;;;;;5053293;28;20025;-18
2022/07/13 05:44:19;;;;;;;7.85;3.65;;;22.80;66.10;;;;;;5053133;28;20029;-18
2022/07/13 05:46:45;;;;;;;4.75;3.42;;;22.90;66.10;;;;;;5052994;28;20424;-17
2022/07/13 05:49:11;;;;;;;9.02;3.60;;;22.90;65.40;;;;;;5052814;28;20112;-17
2022/07/13 05:51:37;;;;;;;8.80;3.58;;;23.00;64.30;;;;;;5053309;28;20033;-17
2022/07/13 05:54:03;;;;;;;5.43;3.20;;;23.10;63.50;;;;;;5053019;28;20389;-16
2022/07/13 05:56:28;;;;;;;6.05;3.25;;;23.30;63.60;;;;;;5052789;28;20052;-19
2022/07/13 05:58:54;;;;;;;4.55;3.40;;;23.40;63.20;;;;;;5052902;28;20021;-18
2022/07/13 06:01:20;;;;;;;3.72;2.90;;;23.50;61.90;;;;;;5051636;28;20033;-18
2022/07/13 06:03:45;;;;;;;7.03;3.40;;;23.60;61.80;;;;;;5053176;28;20032;-18
2022/07/13 06:06:11;;;;;;;4.80;3.08;;;23.70;60.40;;;;;;5054459;28;20129;-17
2022/07/13 06:08:38;;;;;;;8.60;2.97;;;23.80;59.80;;;;;;5056980;28;20044;-17
2022/07/13 06:11:04;;;;;;;5.53;3.10;;;23.90;59.60;;;;;;5056914;28;20072;-18
2022/07/13 06:13:30;;;;;;;8.85;3.30;;;24.00;59.80;;;;;;5056820;28;20504;-18
2022/07/13 06:15:57;;;;;;;7.25;3.05;;;24.10;60.00;;;;;;5056766;28;20029;-17
2022/07/13 06:18:23;;;;;;;4.05;3.22;;;24.20;59.80;;;;;;5056546;28;20053;-16
2022/07/13 06:20:49;;;;;;;3.72;2.60;;;24.30;59.70;;;;;;5056850;28;20040;-16
2022/07/13 06:23:16;;;;;;;5.22;2.95;;;24.30;59.30;;;;;;5056707;28;20392;-17
2022/07/13 06:25:46;;;;;;;4.95;3.40;;;24.40;58.50;;;;;;5056577;28;20033;-16
2022/07/13 06:28:13;;;;;;;6.63;3.50;;;24.50;58.70;;;;;;5056480;28;20029;-17
2022/07/13 06:30:39;;;;;;;4.57;3.10;;;24.40;58.20;;;;;;5056510;28;20501;-17
2022/07/13 06:33:05;;;;;;;4.93;2.88;;;24.50;57.90;;;;;;5056825;28;20100;-17
2022/07/13 06:35:31;;;;;;;3.63;2.97;;;24.70;57.60;;;;;;5056623;28;20437;-17
2022/07/13 06:37:58;;;;;;;3.38;2.78;;;24.80;57.30;;;;;;5056467;28;20107;-18
2022/07/13 06:40:24;;;;;;;5.32;2.70;;;24.90;55.60;;;;;;5056160;28;20074;-17
2022/07/13 06:42:50;;;;;;;4.80;2.60;;;24.90;56.10;;;;;;5055438;28;20032;-17
2022/07/13 06:45:16;;;;;;;4.25;2.58;;;25.00;55.20;;;;;;5056271;28;20029;-17
2022/07/13 06:47:42;;;;;;;4.60;2.70;;;25.10;55.30;;;;;;5056155;28;20025;-17
2022/07/13 06:50:09;;;;;;;3.78;2.35;;;25.20;55.20;;;;;;5056254;28;20033;-17
2022/07/13 06:52:37;;;;;;;2.88;2.40;;;25.40;54.80;;;;;;5056289;28;20029;-16
2022/07/13 06:55:04;;;;;;;3.88;2.55;;;25.50;54.60;;;;;;5056129;28;20028;-16
2022/07/13 06:57:30;;;;;;;4.03;2.20;;;25.60;53.80;;;;;;5056366;28;20075;-18
2022/07/13 06:59:56;;;;;;;4.38;2.35;;;25.70;53.60;;;;;;5055997;28;20381;-17
2022/07/13 07:02:22;;;;;;;4.60;2.60;;;25.80;53.60;;;;;;5055839;28;20027;-16
2022/07/13 07:04:48;;;;;;;4.60;2.60;;;25.80;53.00;;;;;;5056455;28;20040;-16
2022/07/13 07:07:14;;;;;;;5.57;2.55;;;25.80;53.40;;;;;;5055885;28;20472;-16
2022/07/13 07:09:40;;;;;;;3.75;2.50;;;25.90;53.40;;;;;;5055727;28;20029;-16
2022/07/13 07:12:06;;;;;;;3.05;2.53;;;26.10;52.40;;;;;;5055816;28;20025;-15
2022/07/13 07:14:32;;;;;;;2.67;2.13;;;26.20;52.60;;;;;;5055799;28;20075;-16
2022/07/13 07:16:59;;;;;;;4.32;2.25;;;26.40;52.10;;;;;;5055443;28;20036;-16
2022/07/13 07:19:25;;;;;;;4.70;2.65;;;26.40;51.80;;;;;;5055848;28;20035;-16
2022/07/13 07:21:51;;;;;;;4.45;2.30;;;26.40;51.40;;;;;;5055584;28;20025;-16
2022/07/13 07:24:17;;;;;;;4.53;2.80;;;26.40;50.40;;;;;;5055647;28;20052;-17
2022/07/13 07:26:43;;;;;;;6.10;2.50;;;26.40;51.00;;;;;;5055756;28;20052;-16
2022/07/13 07:29:09;;;;;;;6.18;2.60;;;26.40;50.70;;;;;;5055341;28;20374;-16
2022/07/13 07:31:35;;;;;;;2.25;2.00;;;26.50;51.00;;;;;;5054018;28;20408;-17
2022/07/13 07:34:01;;;;;;;4.07;2.60;;;26.60;50.50;;;;;;5055358;28;20051;-17
2022/07/13 07:36:27;;;;;;;3.38;2.53;;;26.80;50.40;;;;;;5055082;28;20024;-16
2022/07/13 07:38:53;;;;;;;3.88;2.10;;;26.90;50.00;;;;;;5054079;28;20025;-17
2022/07/13 07:41:19;;;;;;;3.65;1.98;;;26.90;49.80;;;;;;5055551;28;20033;-17
2022/07/13 07:43:46;;;;;;;3.03;2.00;;;27.10;49.70;;;;;;5055237;28;20477;-16
2022/07/13 07:46:12;;;;;;;3.20;2.40;;;27.30;49.40;;;;;;5055134;28;20040;-16
2022/07/13 07:48:38;;;;;;;3.78;2.05;;;27.40;49.10;;;;;;5055354;28;20056;-17
2022/07/13 07:51:05;;;;;;;7.25;2.40;;;27.50;49.00;;;;;;5055064;28;20106;-17
2022/07/13 07:53:31;;;;;;;2.42;2.00;;;27.80;49.00;;;;;;5054989;28;20032;-16
2022/07/13 07:55:57;;;;;;;3.85;2.40;;;28.00;48.80;;;;;;5055099;28;20024;-17
2022/07/13 07:58:23;;;;;;;4.50;2.05;;;28.20;48.10;;;;;;5055073;28;20384;-16
2022/07/13 08:00:49;;;;;;;5.00;2.33;;;28.40;48.10;;;;;;5055163;28;20104;-15
2022/07/13 08:03:15;;;;;;;4.10;2.42;;;28.60;47.70;;;;;;5055730;28;20346;-15
2022/07/13 08:05:45;;;;;;;3.28;2.60;;;28.60;47.20;;;;;;5054659;28;20025;-16
2022/07/13 08:08:10;;;;;;;3.53;2.22;;;28.50;47.00;;;;;;5053657;28;20052;-17
2022/07/13 08:10:36;;;;;;;4.90;2.55;;;28.50;46.50;;;;;;5054406;28;20123;-16
2022/07/13 08:13:04;;;;;;;2.80;2.40;;;28.40;46.80;;;;;;5053429;28;20033;-17
2022/07/13 08:15:31;;;;;;;5.18;2.30;;;28.40;46.90;;;;;;5054840;28;20047;-17
2022/07/13 08:17:57;;;;;;;3.22;2.20;;;28.60;46.70;;;;;;5054811;28;20120;-16
2022/07/13 08:20:24;;;;;;;3.88;2.55;;;28.90;46.30;;;;;;5054463;28;20071;-17
2022/07/13 08:22:50;;;;;;;2.75;2.10;;;29.30;45.50;;;;;;5054739;28;20059;-16
2022/07/13 08:25:17;;;;;;;4.93;2.20;;;29.70;44.40;;;;;;5054974;28;20492;-15
2022/07/13 08:27:44;;;;;;;2.55;1.92;;;30.10;43.70;;;;;;5054368;28;20041;-17
2022/07/13 08:30:13;;;;;;;3.20;2.22;;;30.50;43.30;;;;;;5052177;28;20080;-16
2022/07/13 08:32:40;;;;;;;3.72;2.10;;;30.90;42.00;;;;;;5054511;28;20048;-16
2022/07/13 08:40:41;;;;;;;4.35;2.10;;;31.50;39.80;;;;;;5053984;28;20040;-16
2022/07/13 08:43:07;;;;;;;4.15;1.90;;;31.70;40.10;;;;;;5054339;28;20074;-16
2022/07/13 08:45:34;;;;;;;2.67;2.13;;;31.90;40.10;;;;;;5052785;28;20072;-16
2022/07/13 08:48:05;;;;;;;3.28;1.70;;;31.90;39.90;;;;;;5053929;28;20036;-16
2022/07/13 08:50:32;;;;;;;2.85;2.13;;;31.90;40.00;;;;;;5053986;28;20040;-17
2022/07/13 08:53:00;;;;;;;4.15;2.22;;;31.80;39.30;;;;;;5053906;28;20102;-16
2022/07/13 08:55:27;;;;;;;2.25;2.00;;;31.60;39.90;;;;;;5054152;28;20029;-16
2022/07/13 08:57:53;;;;;;;4.78;2.13;;;31.50;40.20;;;;;;5053920;28;20040;-16
2022/07/13 09:00:21;;;;;;;2.03;1.83;;;31.40;40.20;;;;;;5053688;28;20025;-17
2022/07/13 09:02:49;;;;;;;2.70;2.00;;;31.30;40.90;;;;;;5053795;28;20110;-17
2022/07/13 09:05:20;;;;;;;6.20;2.17;;;31.20;41.50;;;;;;5053896;28;20036;-16
2022/07/13 09:08:02;;;;;;;3.03;2.30;;;31.30;40.50;;;;;;5053902;28;20175;-17
2022/07/13 09:10:29;;;;;;;4.70;2.10;;;31.60;39.20;;;;;;5053434;28;20492;-17
2022/07/13 09:12:55;;;;;;;5.93;2.40;;;31.70;38.90;;;;;;5053521;28;20033;-17
2022/07/13 09:15:22;;;;;;;2.38;2.17;;;31.70;39.40;;;;;;5053844;28;20040;-16
2022/07/13 09:17:48;;;;;;;6.78;2.30;;;31.70;39.30;;;;;;5053463;28;20519;-16
2022/07/13 09:20:14;;;;;;;2.40;2.08;;;31.80;39.30;;;;;;5053429;28;20025;-18
2022/07/13 09:22:52;;;;;;;2.10;1.90;;;31.90;38.80;;;;;;5053373;28;20059;-18
2022/07/13 09:25:37;;;;;;;2.13;1.80;;;32.20;38.60;;;;;;5053622;28;20055;-14
2022/07/13 09:28:05;;;;;;;4.55;1.95;;;32.60;37.50;;;;;;5053248;28;20487;-17
2022/07/13 09:30:33;;;;;;;2.67;2.00;;;32.80;37.40;;;;;;5052847;28;20520;-17
2022/07/13 09:33:00;;;;;;;3.63;1.70;;;33.00;37.10;;;;;;5053251;28;20032;-17
2022/07/13 09:35:44;;;;;;;2.25;2.03;;;33.30;36.20;;;;;;5053090;28;20043;-15
2022/07/13 09:38:34;;;;;;;3.67;2.28;;;33.70;35.20;;;;;;5053447;28;20484;-16
2022/07/13 09:41:24;;;;;;;3.25;1.70;;;34.10;33.60;;;;;;5053176;28;20431;-17
2022/07/13 09:46:56;;;;;;;2.80;2.00;;;34.50;35.00;;;;;;5053278;28;20039;-17
2022/07/13 09:49:43;;;;;;;2.30;2.10;;;34.90;34.40;;;;;;5052793;28;20025;-18
2022/07/13 09:52:10;;;;;;;3.97;2.40;;;35.00;33.30;;;;;;5052990;28;20076;-17
2022/07/13 09:54:39;;;;;;;3.15;2.20;;;35.00;33.40;;;;;;5052774;28;20485;-17
2022/07/13 09:57:08;;;;;;;2.83;2.10;;;35.00;33.40;;;;;;5053338;28;20060;-17
2022/07/13 09:59:39;;;;;;;2.95;2.40;;;34.90;33.20;;;;;;5052897;28;20029;-17
2022/07/13 10:02:07;;;;;;;5.05;2.08;;;34.60;33.80;;;;;;5051688;28;20362;-17
2022/07/13 10:04:35;;;;;;;3.17;2.30;;;34.40;34.50;;;;;;5052860;28;20059;-17
2022/07/13 10:07:03;;;;;;;3.70;2.30;;;34.40;34.10;;;;;;5053084;28;20421;-18
2022/07/13 10:09:31;;;;;;;5.00;2.30;;;34.70;33.90;;;;;;5053073;28;20119;-16
2022/07/13 10:11:58;;;;;;;2.75;2.00;;;35.00;33.30;;;;;;5053097;28;20036;-16
2022/07/13 10:14:29;;;;;;;5.13;2.60;;;35.40;32.40;;;;;;5052876;28;20132;-17
2022/07/13 10:17:22;;;;;;;2.25;2.05;;;35.70;32.30;;;;;;5053066;28;20028;-16
2022/07/13 10:19:57;;;;;;;3.38;2.38;;;35.90;31.90;;;;;;5052741;28;20040;-17
2022/07/13 10:22:28;;;;;;;2.85;2.05;;;35.90;30.90;;;;;;5052834;28;20108;-16
2022/07/13 10:24:58;;;;;;;3.80;2.22;;;35.60;31.40;;;;;;5053304;28;20036;-18
2022/07/13 10:27:26;;;;;;;2.83;2.20;;;35.40;31.70;;;;;;5053591;28;20058;-18
2022/07/13 10:29:55;;;;;;;2.92;2.45;;;35.40;32.00;;;;;;5052516;28;20617;-16
2022/07/13 10:32:23;;;;;;;3.30;2.38;;;35.50;32.10;;;;;;5051204;28;20029;-17
2022/07/13 10:34:52;;;;;;;3.40;2.20;;;35.50;31.40;;;;;;5052482;28;20438;-17
2022/07/13 10:37:19;;;;;;;2.60;2.40;;;35.30;32.10;;;;;;5052622;28;20025;-17
2022/07/13 10:40:14;;;;;;;2.30;2.10;;;34.90;32.40;;;;;;5052745;28;20024;-17
2022/07/13 10:42:57;;;;;;;4.70;2.25;;;34.80;32.30;;;;;;5052493;28;20037;-16
2022/07/13 10:48:02;;;;;;;2.75;2.20;;;35.20;32.10;;;;;;5052487;28;20439;-16
2022/07/13 10:50:36;;;;;;;3.42;2.03;;;35.60;32.00;;;;;;5052405;28;20036;-17
2022/07/13 10:53:03;;;;;;;2.20;1.95;;;36.10;31.70;;;;;;5055148;28;20025;-17
2022/07/13 10:55:30;;;;;;;3.22;2.30;;;36.50;31.10;;;;;;5056456;28;20079;-16
2022/07/13 10:57:57;;;;;;;2.65;1.90;;;36.50;31.00;;;;;;5054888;28;20025;-16
2022/07/13 11:00:38;;;;;;;6.35;4.05;;;36.40;31.10;;;;;;5055824;28;20515;-16
2022/07/13 11:03:07;;;;;;;3.75;3.00;;;36.30;30.70;;;;;;5056026;28;20416;-16
2022/07/13 11:05:35;;;;;;;3.42;2.40;;;36.40;31.10;;;;;;5056171;28;20099;-16
2022/07/13 11:08:15;;;;;;;2.40;2.15;;;36.90;30.40;;;;;;5055799;28;20434;-15
2022/07/13 11:10:42;;;;;;;3.03;1.92;;;37.20;30.20;;;;;;5055897;28;20083;-15
2022/07/13 11:13:13;;;;;;;2.25;2.05;;;37.70;28.30;;;;;;5056031;28;20040;-16
2022/07/13 11:15:53;;;;;;;2.20;2.00;;;37.80;28.50;;;;;;5055778;28;20025;-17
2022/07/13 11:18:22;;;;;;;4.10;2.17;;;37.60;29.10;;;;;;5055833;28;20033;-17
2022/07/13 11:21:14;;;;;;;2.42;2.15;;;37.60;28.90;;;;;;5055505;28;20025;-17
2022/07/13 11:26:45;;;;;;;3.33;2.20;;;37.90;29.10;;;;;;5055708;28;20040;-16
2022/07/13 11:29:41;;;;;;;2.70;2.22;;;38.10;28.90;;;;;;5055845;28;20599;-16
2022/07/13 11:32:08;;;;;;;2.40;2.17;;;38.20;28.60;;;;;;5055495;28;20056;-16
2022/07/13 11:34:37;;;;;;;3.78;2.30;;;38.20;28.70;;;;;;5055440;28;20029;-17
2022/07/13 11:37:05;;;;;;;3.67;2.20;;;38.40;28.10;;;;;;5055609;28;20031;-16
2022/07/13 11:39:33;;;;;;;2.25;2.15;;;38.60;28.30;;;;;;5055249;28;20025;-17
2022/07/13 11:42:01;;;;;;;3.40;2.20;;;39.00;28.20;;;;;;5055543;28;20029;-16
2022/07/13 11:44:29;;;;;;;4.63;2.63;;;39.30;27.80;;;;;;5054999;28;20515;-16
2022/07/13 11:47:07;;;;;;;3.97;2.00;;;39.40;27.20;;;;;;5055559;28;20036;-16
2022/07/13 11:49:43;;;;;;;2.72;2.25;;;39.30;27.20;;;;;;5054969;28;20044;-16
2022/07/13 11:52:20;;;;;;;2.47;2.28;;;39.50;26.80;;;;;;5055065;28;20493;-16
2022/07/13 11:55:05;;;;;;;4.15;2.40;;;39.40;26.90;;;;;;5055213;28;20033;-16
2022/07/13 11:57:33;;;;;;;3.22;2.53;;;38.90;27.00;;;;;;5055282;28;20025;-16
2022/07/13 12:00:05;;;;;;;3.60;2.53;;;38.40;27.70;;;;;;5054855;28;20373;-16
2022/07/13 12:02:32;;;;;;;4.00;2.13;;;38.00;28.10;;;;;;5054873;28;20025;-16
2022/07/13 12:04:58;;;;;;;2.92;2.30;;;37.90;28.50;;;;;;5054730;28;20032;-17
2022/07/13 12:07:28;;;;;;;2.55;2.30;;;38.20;28.40;;;;;;5054735;28;20028;-16
2022/07/13 12:09:56;;;;;;;3.05;2.47;;;38.40;28.30;;;;;;5055508;28;20123;-16
2022/07/13 12:12:28;;;;;;;6.03;2.80;;;38.80;28.20;;;;;;5054776;28;20148;-16
2022/07/13 12:14:56;;;;;;;3.10;2.00;;;39.20;27.90;;;;;;5054591;28;20043;-16
2022/07/13 12:17:23;;;;;;;4.93;2.55;;;39.50;27.40;;;;;;5054479;28;20027;-16
2022/07/13 12:19:49;;;;;;;3.03;2.10;;;40.00;27.10;;;;;;5054955;28;20531;-16
2022/07/13 12:22:20;;;;;;;4.40;2.13;;;40.30;26.80;;;;;;5054612;28;20029;-16
2022/07/13 12:24:47;;;;;;;3.13;2.20;;;40.40;26.30;;;;;;5055126;28;20025;-17
2022/07/13 12:27:28;;;;;;;3.63;2.42;;;40.40;26.30;;;;;;5054330;28;20033;-16
2022/07/13 12:30:07;;;;;;;4.72;2.50;;;40.30;26.20;;;;;;5054318;28;20052;-15
2022/07/13 12:32:52;;;;;;;2.88;2.42;;;39.70;26.70;;;;;;5054124;28;20119;-16
2022/07/13 12:35:20;;;;;;;2.95;2.28;;;39.20;27.30;;;;;;5054179;28;20078;-16
2022/07/13 12:37:53;;;;;;;3.97;2.35;;;39.40;26.60;;;;;;5054167;28;20037;-16
2022/07/13 12:40:39;;;;;;;2.10;1.98;;;39.80;26.10;;;;;;5054113;28;20067;-16
2022/07/13 12:43:15;;;;;;;2.42;2.22;;;40.10;26.30;;;;;;5054470;28;20545;-16
2022/07/13 12:45:43;;;;;;;2.90;2.30;;;40.50;25.70;;;;;;5054406;28;20464;-16
2022/07/13 12:48:17;;;;;;;2.00;1.90;;;40.80;25.80;;;;;;5054236;28;20050;-16
2022/07/13 12:50:58;;;;;;;3.15;2.50;;;41.00;25.60;;;;;;5054125;28;20029;-16
2022/07/13 12:53:47;;;;;;;3.22;2.03;;;41.10;25.30;;;;;;5054252;28;20112;-16
2022/07/13 12:56:23;;;;;;;2.55;2.05;;;40.70;25.90;;;;;;5047067;28;20052;-16
2022/07/13 12:58:58;;;;;;;2.60;2.15;;;40.40;26.60;;;;;;5054123;28;20107;-16
2022/07/13 13:01:36;;;;;;;2.40;2.20;;;40.40;26.30;;;;;;5054081;28;20045;-16
2022/07/13 13:04:04;;;;;;;2.85;2.30;;;40.50;26.80;;;;;;5054081;28;20091;-17